Time;durP1;ratioP1;P1;durP2;ratioP2;P2;SDS_P1;SDS_P2;PMS_P1;PMS_P2;Temp;Humidity;BMP_temperature;BMP_pressure;BME280_temperature;BME280_humidity;BME280_pressure;Samples;Min_cycle;Max_cycle;Signal;HPM_P1;HPM_P2
2022/06/16 00:01:49;;;;;;;11.87;10.87;;;;;;;14.69;91.29;93256.97;5028738;28;20313;-72
2022/06/16 00:04:15;;;;;;;12.03;11.17;;;;;;;14.48;91.89;93237.31;5028590;28;20202;-72
2022/06/16 00:06:40;;;;;;;11.60;10.93;;;;;;;14.82;90.80;93252.84;5029090;28;20237;-73
2022/06/16 00:09:05;;;;;;;12.90;12.00;;;;;;;14.73;90.76;93244.81;5033340;28;20245;-72
2022/06/16 00:11:31;;;;;;;13.27;12.33;;;;;;;14.72;91.63;93250.34;5032728;28;20234;-72
2022/06/16 00:13:56;;;;;;;11.60;10.90;;;;;;;14.57;91.98;93246.13;5031908;28;20190;-72
2022/06/16 00:16:22;;;;;;;13.10;11.80;;;;;;;14.45;92.04;93237.91;5032240;28;20231;-72
2022/06/16 00:18:48;;;;;;;12.03;11.23;;;;;;;14.60;91.90;93244.78;5029846;28;20190;-72
2022/06/16 00:21:14;;;;;;;12.83;11.97;;;;;;;14.45;92.28;93243.94;5031841;28;20226;-72
2022/06/16 00:23:40;;;;;;;13.20;12.27;;;;;;;14.38;93.05;93230.38;5033325;28;20187;-72
2022/06/16 00:26:18;;;;;;;13.23;12.33;;;;;;;14.43;93.23;93245.28;5025180;28;20238;-73
2022/06/16 00:28:43;;;;;;;12.23;11.47;;;;;;;14.34;93.36;93232.03;5013402;28;20199;-72
2022/06/16 00:31:11;;;;;;;13.27;12.27;;;;;;;14.37;94.01;93244.59;5019892;28;20894;-72
2022/06/16 00:33:37;;;;;;;13.47;12.17;;;;;;;14.23;94.00;93235.06;5031813;28;20230;-73
2022/06/16 00:36:03;;;;;;;12.53;11.73;;;;;;;14.27;94.38;93242.09;5031931;28;20246;-72
2022/06/16 00:38:28;;;;;;;13.03;11.93;;;;;;;14.17;94.51;93236.19;5033260;28;20195;-73
2022/06/16 00:40:54;;;;;;;11.87;11.07;;;;;;;14.32;94.10;93246.50;5032059;28;20219;-72
2022/06/16 00:43:19;;;;;;;13.13;12.13;;;;;;;14.18;95.34;93241.16;5028736;28;20191;-72
2022/06/16 00:45:53;;;;;;;14.37;13.13;;;;;;;14.29;94.43;93245.22;5031933;28;20249;-72
2022/06/16 00:48:36;;;;;;;14.07;13.07;;;;;;;14.22;94.41;93241.38;5031777;28;20189;-72
2022/06/16 00:51:09;;;;;;;14.00;13.00;;;;;;;14.22;95.09;93247.41;5031290;28;20227;-72
2022/06/16 00:53:36;;;;;;;12.53;11.63;;;;;;;14.15;94.83;93236.47;5032240;28;20194;-72
2022/06/16 00:56:03;;;;;;;14.50;13.50;;;;;;;14.07;95.65;93231.09;5031372;28;20259;-72
2022/06/16 00:58:31;;;;;;;13.40;12.40;;;;;;;14.12;95.91;93244.91;5030004;28;20183;-72
2022/06/16 01:00:56;;;;;;;13.43;12.37;;;;;;;14.01;96.33;93242.72;5030724;28;20250;-72
2022/06/16 01:06:19;;;;;;;13.23;12.13;;;;;;;13.78;98.61;93235.69;5031341;28;20229;-72
2022/06/16 01:08:48;;;;;;;11.90;11.07;;;;;;;13.63;99.33;93212.25;5030585;28;20227;-72
2022/06/16 01:14:29;;;;;;;13.60;12.23;;;;;;;13.69;98.70;93211.91;5031152;28;20202;-72
2022/06/16 01:17:01;;;;;;;13.27;12.27;;;;;;;13.73;98.48;93215.53;5030887;28;20222;-72
2022/06/16 01:19:45;;;;;;;14.20;13.10;;;;;;;13.79;98.08;93226.75;5032282;28;20197;-73
2022/06/16 01:22:44;;;;;;;12.97;11.93;;;;;;;13.86;97.87;93227.97;5029455;28;21362;-74
2022/06/16 01:25:35;;;;;;;13.27;12.27;;;;;;;13.68;97.54;93207.72;5029473;28;20259;-76
2022/06/16 01:28:51;;;;;;;13.20;12.20;;;;;;;13.35;98.03;93181.66;5025540;28;20299;-73
2022/06/16 01:31:22;;;;;;;13.43;12.20;;;;;;;13.64;98.00;93225.09;5004784;28;20227;-72
2022/06/16 01:34:04;;;;;;;14.20;13.20;;;;;;;13.66;98.31;93222.97;5030721;28;20210;-74
2022/06/16 01:36:36;;;;;;;14.30;13.07;;;;;;;13.61;98.14;93225.66;5028064;28;20222;-73
2022/06/16 01:39:08;;;;;;;15.23;14.00;;;;;;;13.23;99.84;93195.16;5030581;28;20191;-69
2022/06/16 01:41:45;;;;;;;15.57;14.27;;;;;;;13.63;99.48;93217.50;5029618;28;20261;-72
2022/06/16 01:44:23;;;;;;;14.00;13.00;;;;;;;13.58;99.67;93212.31;5030475;28;20198;-73
2022/06/16 01:46:55;;;;;;;15.70;14.30;;;;;;;13.56;99.46;93211.81;5029164;28;20249;-69
2022/06/16 01:49:26;;;;;;;14.47;13.37;;;;;;;13.40;100.00;93213.06;5030191;28;20207;-70
2022/06/16 01:51:58;;;;;;;15.97;14.47;;;;;;;13.50;99.94;93207.69;5028833;28;20230;-69
2022/06/16 01:54:37;;;;;;;15.63;14.23;;;;;;;13.44;99.96;93204.38;5030955;28;20221;-70
2022/06/16 01:57:14;;;;;;;14.33;13.23;;;;;;;13.32;100.00;93195.34;5030424;28;20222;-70
2022/06/16 02:00:03;;;;;;;15.97;14.67;;;;;;;13.59;99.56;93206.00;5030580;28;20202;-70
2022/06/16 02:02:32;;;;;;;16.27;15.07;;;;;;;13.61;98.40;93207.28;5028513;28;20218;-71
2022/06/16 02:05:14;;;;;;;15.83;14.43;;;;;;;13.40;99.78;93205.22;5030098;28;20205;-71
2022/06/16 02:07:45;;;;;;;15.73;14.43;;;;;;;13.45;99.75;93198.03;5028898;28;20763;-70
2022/06/16 02:10:37;;;;;;;15.90;14.60;;;;;;;13.34;99.85;93190.59;5030175;28;20749;-70
2022/06/16 02:13:06;;;;;;;15.83;14.53;;;;;;;13.39;99.61;93209.66;5029642;28;20230;-70
2022/06/16 02:15:59;;;;;;;16.03;14.83;;;;;;;13.32;100.00;93209.22;5029793;28;20179;-70
2022/06/16 02:18:29;;;;;;;16.97;15.37;;;;;;;13.15;100.00;93190.56;5029487;28;20245;-70
2022/06/16 02:21:17;;;;;;;17.87;16.07;;;;;;;13.28;100.00;93208.22;5028712;28;20239;-69
2022/06/16 02:23:44;;;;;;;16.07;14.83;;;;;;;13.38;100.00;93213.34;5029576;28;20256;-71
2022/06/16 02:26:10;;;;;;;19.23;16.20;;;;;;;13.47;99.43;93221.38;5029602;28;20253;-77
2022/06/16 02:29:23;;;;;;;16.77;15.27;;;;;;;13.07;99.75;93188.53;5029712;28;20216;-76
2022/06/16 02:32:06;;;;;;;18.80;16.83;;;;;;;13.32;99.91;93218.94;5023293;28;20242;-76
2022/06/16 02:34:55;;;;;;;18.20;16.70;;;;;;;13.15;100.00;93223.84;5029990;28;20182;-76
2022/06/16 02:37:35;;;;;;;16.30;15.00;;;;;;;13.00;100.00;93219.53;5029587;28;20246;-77
2022/06/16 02:40:32;;;;;;;17.53;15.97;;;;;;;13.17;100.00;93230.34;5027995;28;20182;-76
2022/06/16 02:43:15;;;;;;;16.63;15.30;;;;;;;13.02;100.00;93220.03;5028551;28;20210;-76
2022/06/16 02:45:56;;;;;;;17.33;15.93;;;;;;;13.17;100.00;93234.84;5028777;28;20226;-76
2022/06/16 02:48:28;;;;;;;16.17;14.77;;;;;;;13.29;99.52;93235.22;5029576;28;20187;-76
2022/06/16 02:51:31;;;;;;;15.83;14.43;;;;;;;13.37;98.37;93235.38;5028630;28;20241;-76
2022/06/16 02:56:35;;;;;;;16.30;14.90;;;;;;;13.21;99.21;93228.75;5029823;28;20226;-76
2022/06/16 02:59:10;;;;;;;16.33;14.87;;;;;;;13.32;99.69;93245.94;5028202;28;20171;-76
2022/06/16 03:01:37;;;;;;;17.87;16.17;;;;;;;13.27;100.00;93232.88;5028484;28;20292;-76
2022/06/16 03:04:04;;;;;;;17.23;15.63;;;;;;;13.45;99.26;93247.13;5028003;28;20191;-76
2022/06/16 03:06:29;;;;;;;17.67;16.03;;;;;;;13.49;99.12;93242.88;5029366;28;20226;-76
2022/06/16 03:08:57;;;;;;;17.27;15.77;;;;;;;13.44;99.90;93240.28;5028420;28;20230;-76
2022/06/16 03:11:23;;;;;;;18.43;16.77;;;;;;;13.37;100.00;93240.63;5028322;28;20231;-77
2022/06/16 03:13:48;;;;;;;18.00;16.30;;;;;;;13.41;99.79;93239.03;5027224;28;20197;-76
2022/06/16 03:16:14;;;;;;;18.00;16.40;;;;;;;13.33;100.00;93231.78;5027816;28;20242;-76
2022/06/16 03:18:41;;;;;;;16.80;15.30;;;;;;;13.46;100.00;93241.59;5028060;28;20183;-76
2022/06/16 03:21:06;;;;;;;17.13;15.33;;;;;;;13.76;100.00;93246.47;5028623;28;20285;-76
2022/06/16 03:23:31;;;;;;;17.83;16.07;;;;;;;13.83;99.48;93233.78;5028531;28;20187;-76
2022/06/16 03:25:57;;;;;;;18.07;16.27;;;;;;;13.91;99.82;93240.25;5027371;28;20225;-76
2022/06/16 03:28:22;;;;;;;17.77;16.07;;;;;;;14.02;99.05;93226.66;5028999;28;20218;-76
2022/06/16 03:30:48;;;;;;;18.13;16.53;;;;;;;13.99;99.01;93223.84;5029029;28;20304;-76
2022/06/16 03:33:13;;;;;;;22.03;17.47;;;;;;;13.97;99.20;93218.09;5027820;28;21241;-76
2022/06/16 03:35:41;;;;;;;19.43;17.53;;;;;;;13.95;99.05;93205.25;5028607;28;20218;-76
2022/06/16 03:40:41;;;;;;;20.60;18.37;;;;;;;14.07;99.57;93217.97;5029277;28;20222;-76
2022/06/16 03:43:08;;;;;;;23.57;17.83;;;;;;;14.22;99.60;93226.41;5029004;28;20202;-74
2022/06/16 03:45:34;;;;;;;19.90;17.83;;;;;;;14.26;99.56;93224.78;5028309;28;20191;-76
2022/06/16 03:47:59;;;;;;;20.47;18.47;;;;;;;14.40;98.93;93230.09;5029600;28;20187;-76
2022/06/16 03:50:25;;;;;;;20.47;18.27;;;;;;;14.47;97.71;93226.03;5029042;28;20190;-76
2022/06/16 03:52:50;;;;;;;21.47;19.27;;;;;;;14.68;97.16;93221.25;5028447;28;20213;-76
2022/06/16 03:55:15;;;;;;;19.73;17.50;;;;;;;14.99;95.61;93211.75;5027875;28;20199;-76
2022/06/16 03:57:41;;;;;;;24.70;19.87;;;;;;;15.45;92.49;93225.69;5027584;28;20195;-76
2022/06/16 04:00:08;;;;;;;22.30;17.63;;;;;;;15.82;89.82;93232.56;5028945;28;20218;-76
2022/06/16 04:02:33;;;;;;;19.50;15.40;;;;;;;16.02;87.24;93243.44;5026986;28;20230;-76
2022/06/16 04:05:00;;;;;;;16.97;15.63;;;;;;;16.09;86.46;93240.41;5029763;28;20198;-76
2022/06/16 04:07:27;;;;;;;16.47;14.80;;;;;;;16.32;85.42;93231.47;5027980;28;20206;-76
2022/06/16 04:09:52;;;;;;;16.70;14.60;;;;;;;16.67;83.85;93251.75;5022370;28;20234;-76
2022/06/16 04:12:18;;;;;;;16.17;14.73;;;;;;;17.06;80.20;93237.88;5027921;28;20641;-76
2022/06/16 04:14:43;;;;;;;17.17;15.40;;;;;;;17.47;78.68;93235.78;5026522;28;20195;-76
2022/06/16 04:17:09;;;;;;;16.13;14.73;;;;;;;17.63;77.51;93248.25;5028232;28;20215;-76
2022/06/16 04:19:34;;;;;;;16.70;15.13;;;;;;;17.62;77.86;93255.72;5026938;28;20269;-76
2022/06/16 04:21:59;;;;;;;17.13;15.63;;;;;;;17.77;77.45;93253.44;5027964;28;20222;-76
2022/06/16 04:24:25;;;;;;;16.00;14.67;;;;;;;17.63;78.32;93248.25;5028546;28;20259;-76
2022/06/16 04:26:54;;;;;;;17.30;15.67;;;;;;;17.98;76.48;93249.16;5027577;28;20223;-76
2022/06/16 04:29:19;;;;;;;16.93;15.00;;;;;;;18.04;76.46;93252.44;5028207;28;20194;-76
2022/06/16 04:31:46;;;;;;;15.40;14.10;;;;;;;18.07;76.41;93262.38;5028171;28;20299;-76
2022/06/16 04:34:13;;;;;;;16.20;14.70;;;;;;;19.10;72.23;93256.81;5028629;28;20203;-76
2022/06/16 04:36:38;;;;;;;16.30;14.70;;;;;;;21.55;63.41;93261.22;5028474;28;20250;-76
2022/06/16 04:39:04;;;;;;;15.80;14.33;;;;;;;20.87;64.31;93238.78;5028196;28;20207;-76
2022/06/16 04:41:30;;;;;;;17.03;14.60;;;;;;;19.68;68.66;93258.84;5028147;28;20228;-76
2022/06/16 04:43:55;;;;;;;16.17;14.87;;;;;;;20.06;67.49;93256.94;5029124;28;20274;-76
2022/06/16 04:46:21;;;;;;;16.10;14.47;;;;;;;19.16;70.88;93257.41;5027061;28;20230;-76
2022/06/16 04:48:47;;;;;;;17.20;15.50;;;;;;;18.40;74.44;93252.97;5028602;28;20197;-76
2022/06/16 04:51:14;;;;;;;16.97;15.30;;;;;;;18.21;76.25;93232.06;5025031;28;20232;-76
2022/06/16 04:53:39;;;;;;;17.13;15.23;;;;;;;18.18;76.93;93237.22;5030222;28;20184;-76
2022/06/16 04:56:07;;;;;;;16.83;15.20;;;;;;;18.61;76.10;93257.34;5031808;28;20256;-76
2022/06/16 04:58:32;;;;;;;16.27;14.67;;;;;;;18.61;76.67;93257.34;5033016;28;20191;-76
2022/06/16 05:00:58;;;;;;;16.43;14.97;;;;;;;18.45;77.08;93266.03;5028605;28;20230;-76
2022/06/16 05:03:26;;;;;;;16.30;15.00;;;;;;;19.65;71.98;93264.78;5032524;28;20254;-77
2022/06/16 05:05:52;;;;;;;15.43;14.13;;;;;;;20.36;69.41;93265.69;5029960;28;20219;-76
2022/06/16 05:08:19;;;;;;;17.13;15.23;;;;;;;21.00;66.51;93271.44;5031762;28;20309;-76
2022/06/16 05:10:46;;;;;;;16.57;14.97;;;;;;;20.81;67.11;93273.78;5030764;28;20225;-76
2022/06/16 05:13:12;;;;;;;15.53;14.27;;;;;;;23.26;59.03;93264.94;5032590;28;20188;-76
2022/06/16 05:15:37;;;;;;;14.90;13.35;;;;;;;25.86;50.39;93282.22;5030767;28;20294;-77
2022/06/16 05:18:03;;;;;;;13.80;12.65;;;;;;;25.23;50.74;93273.78;5032355;28;20264;-75
2022/06/16 05:20:29;;;;;;;14.02;12.80;;;;;;;27.78;44.19;93288.00;5031392;28;20220;-75
2022/06/16 05:22:54;;;;;;;15.02;13.73;;;;;;;26.08;48.06;93278.81;5032120;28;20184;-75
2022/06/16 05:25:19;;;;;;;15.10;13.57;;;;;;;24.48;52.45;93261.09;5031091;28;20253;-75
2022/06/16 05:27:45;;;;;;;19.15;14.15;;;;;;;21.98;61.61;93275.59;5032239;28;20214;-75
2022/06/16 05:30:11;;;;;;;14.20;13.00;;;;;;;22.00;61.11;93260.09;5027360;28;20315;-75
2022/06/16 05:32:36;;;;;;;15.65;14.30;;;;;;;22.28;60.79;93265.50;5031494;28;20248;-72
2022/06/16 05:35:02;;;;;;;16.98;13.27;;;;;;;24.34;55.87;93276.81;5032092;28;20215;-74
2022/06/16 05:37:27;;;;;;;15.90;13.90;;;;;;;29.25;42.15;93289.13;5030791;28;20222;-74
2022/06/16 05:39:53;;;;;;;14.93;12.88;;;;;;;31.46;36.48;93310.09;5030174;28;20205;-74
2022/06/16 05:42:19;;;;;;;14.60;13.10;;;;;;;30.53;38.03;93309.84;5030216;28;20226;-74
2022/06/16 05:44:45;;;;;;;15.57;14.00;;;;;;;27.41;44.17;93301.38;5029780;28;20213;-74
2022/06/16 05:47:10;;;;;;;15.40;13.43;;;;;;;29.62;39.24;93308.50;5031287;28;20218;-74
2022/06/16 05:49:38;;;;;;;14.45;13.00;;;;;;;30.56;36.95;93311.78;5031195;28;20197;-74
2022/06/16 05:52:15;;;;;;;14.85;13.55;;;;;;;31.61;35.56;93317.00;5029028;28;20210;-74
2022/06/16 05:54:41;;;;;;;14.98;13.43;;;;;;;30.39;37.01;93312.53;5030465;28;20291;-74
2022/06/16 05:57:08;;;;;;;14.90;13.48;;;;;;;28.69;41.65;93296.09;5030223;28;20241;-74
2022/06/16 05:59:35;;;;;;;15.13;13.75;;;;;;;28.43;41.07;93283.59;5028910;28;20186;-74
2022/06/16 06:02:01;;;;;;;15.45;14.02;;;;;;;26.20;47.38;93296.56;5031328;28;20230;-74
2022/06/16 06:04:26;;;;;;;15.32;12.65;;;;;;;29.62;40.57;93286.22;5028620;28;20211;-74
2022/06/16 06:06:52;;;;;;;17.77;14.13;;;;;;;30.15;38.68;93307.88;5031216;28;20326;-74
2022/06/16 06:17:30;;;;;;;17.00;15.30;;;;;;;30.33;39.32;93287.13;5028092;28;20217;-74
2022/06/16 06:19:56;;;;;;;16.00;14.45;;;;;;;31.88;36.76;93301.81;5029827;28;20218;-74
2022/06/16 06:22:26;;;;;;;18.60;14.70;;;;;;;33.59;32.94;93306.97;5028405;28;20228;-74
2022/06/16 06:24:55;;;;;;;16.17;14.50;;;;;;;33.57;33.21;93322.09;5029459;28;20191;-74
2022/06/16 06:27:26;;;;;;;16.58;14.65;;;;;;;29.56;40.71;93299.25;5029924;28;20253;-74
2022/06/16 06:29:51;;;;;;;16.55;14.88;;;;;;;27.06;45.59;93297.47;5029495;28;20197;-74
2022/06/16 06:32:19;;;;;;;16.08;14.45;;;;;;;27.48;47.37;93306.06;5029392;28;20234;-74
2022/06/16 06:34:45;;;;;;;16.42;14.75;;;;;;;30.88;38.79;93309.88;5029042;28;20196;-74
2022/06/16 06:37:13;;;;;;;15.40;13.90;;;;;;;30.79;39.02;93314.84;5030424;28;20229;-74
2022/06/16 06:39:38;;;;;;;17.40;15.52;;;;;;;28.21;43.73;93306.06;5027923;28;20211;-74
2022/06/16 06:42:04;;;;;;;16.85;14.50;;;;;;;25.63;50.68;93286.00;5028729;28;20335;-74
2022/06/16 06:44:30;;;;;;;18.65;16.52;;;;;;;24.04;57.36;93300.50;5029866;28;20190;-73
2022/06/16 06:46:56;;;;;;;18.95;16.55;;;;;;;24.40;56.93;93299.44;5030473;28;20289;-74
2022/06/16 06:49:21;;;;;;;18.10;16.13;;;;;;;25.62;53.24;93289.81;5029030;28;20187;-74
2022/06/16 06:51:47;;;;;;;18.63;16.73;;;;;;;25.59;52.19;93293.97;5030029;28;20218;-74
2022/06/16 06:54:12;;;;;;;20.38;16.35;;;;;;;23.92;57.35;93281.91;5029170;28;20756;-79
2022/06/16 06:56:38;;;;;;;23.30;16.67;;;;;;;23.00;60.86;93281.34;5037083;28;20232;-75
2022/06/16 06:59:07;;;;;;;21.63;17.75;;;;;;;23.23;61.35;93286.91;5028340;28;20184;-74
2022/06/16 07:01:33;;;;;;;18.83;16.80;;;;;;;22.87;62.45;93282.50;5026504;28;20321;-71
2022/06/16 07:03:59;;;;;;;25.35;17.30;;;;;;;22.91;62.79;93291.34;5029474;28;20190;-73
2022/06/16 07:06:25;;;;;;;17.52;15.70;;;;;;;23.59;60.62;93281.44;5029468;28;21357;-74
2022/06/16 07:08:50;;;;;;;18.45;15.82;;;;;;;24.08;59.08;93289.94;5029339;28;20243;-69
2022/06/16 07:11:16;;;;;;;20.27;16.88;;;;;;;23.31;59.55;93288.69;5029147;28;20255;-69
2022/06/16 07:13:42;;;;;;;18.67;16.73;;;;;;;23.05;60.75;93280.31;5029932;28;20194;-69
2022/06/16 07:16:09;;;;;;;19.77;17.65;;;;;;;22.83;61.49;93278.97;5028236;28;20252;-70
2022/06/16 07:18:34;;;;;;;19.25;17.15;;;;;;;22.38;62.35;93277.56;5029758;28;20201;-71
2022/06/16 07:21:00;;;;;;;20.75;17.77;;;;;;;22.65;62.54;93276.88;5028597;28;20234;-71
2022/06/16 07:23:27;;;;;;;22.13;17.77;;;;;;;23.32;59.82;93288.34;5028400;28;20255;-71
2022/06/16 07:25:53;;;;;;;19.92;17.90;;;;;;;23.13;62.79;93288.16;5027773;28;20263;-71
2022/06/16 07:28:19;;;;;;;20.48;18.15;;;;;;;23.21;60.72;93289.13;5028821;28;20201;-72
2022/06/16 07:30:45;;;;;;;24.50;18.02;;;;;;;22.31;64.92;93282.66;5027241;28;20244;-71
2022/06/16 07:33:12;;;;;;;21.30;17.95;;;;;;;22.25;64.73;93290.09;5024327;28;20214;-70
2022/06/16 07:35:40;;;;;;;22.75;18.95;;;;;;;22.24;65.29;93288.56;5027074;28;20263;-71
2022/06/16 07:38:06;;;;;;;20.58;18.27;;;;;;;22.13;66.87;93292.78;5026001;28;20236;-72
2022/06/16 07:40:31;;;;;;;23.17;19.05;;;;;;;22.09;65.83;93276.69;5022563;28;20180;-71
2022/06/16 07:42:57;;;;;;;21.95;18.45;;;;;;;21.81;66.76;93290.97;5023580;28;20185;-71
2022/06/16 07:45:28;;;;;;;21.05;17.83;;;;;;;21.56;68.49;93274.19;5021876;28;20311;-72
2022/06/16 07:47:57;;;;;;;20.17;17.98;;;;;;;21.45;68.32;93288.19;5022587;28;20202;-72
2022/06/16 07:50:24;;;;;;;23.67;18.90;;;;;;;21.54;67.98;93273.72;5022731;28;20190;-71
2022/06/16 07:52:50;;;;;;;23.90;19.52;;;;;;;21.37;68.33;93271.25;5022954;28;20185;-71
2022/06/16 07:55:17;;;;;;;23.00;18.95;;;;;;;21.23;69.27;93278.75;5024578;28;20225;-72
2022/06/16 07:57:45;;;;;;;26.48;18.92;;;;;;;21.16;68.85;93280.38;5026142;28;20219;-71
2022/06/16 08:00:13;;;;;;;24.52;19.80;;;;;;;21.01;69.88;93265.84;5028340;28;20258;-73
2022/06/16 08:02:39;;;;;;;22.17;18.80;;;;;;;20.60;70.21;93285.19;5028540;28;20235;-71
2022/06/16 08:05:06;;;;;;;24.45;19.35;;;;;;;20.86;69.89;93287.63;5028032;28;20262;-72
2022/06/16 08:07:31;;;;;;;23.63;19.88;;;;;;;21.26;69.76;93285.28;5028489;28;20227;-72
2022/06/16 08:09:57;;;;;;;22.45;19.35;;;;;;;20.95;71.50;93291.00;5028563;28;20237;-71
2022/06/16 08:12:24;;;;;;;23.10;19.08;;;;;;;20.44;69.19;93278.91;5026144;28;20238;-73
2022/06/16 08:14:50;;;;;;;26.48;18.77;;;;;;;20.66;70.34;93283.91;5027348;28;20265;-74
2022/06/16 08:17:19;;;;;;;26.08;19.27;;;;;;;20.78;72.08;93290.38;5028194;28;20237;-76
2022/06/16 08:19:44;;;;;;;20.45;18.35;;;;;;;20.79;69.98;93287.41;5028001;28;20207;-75
2022/06/16 08:22:12;;;;;;;22.35;18.67;;;;;;;21.12;69.03;93274.94;5028084;28;20259;-75
2022/06/16 08:24:37;;;;;;;22.48;18.67;;;;;;;21.48;68.34;93287.56;5027901;28;20221;-75
2022/06/16 08:27:03;;;;;;;22.23;19.10;;;;;;;21.12;68.29;93293.53;5027902;28;20232;-77
2022/06/16 08:29:29;;;;;;;21.95;18.70;;;;;;;20.43;69.99;93306.53;5030013;28;20202;-75
2022/06/16 08:31:57;;;;;;;21.85;18.33;;;;;;;21.51;67.28;93306.28;5031978;28;20269;-74
2022/06/16 08:34:22;;;;;;;22.25;19.00;;;;;;;21.86;67.12;93288.09;5032705;28;20193;-74
2022/06/16 08:36:47;;;;;;;20.05;17.92;;;;;;;22.58;62.07;93276.69;5030120;28;20226;-77
2022/06/16 08:39:13;;;;;;;21.90;19.08;;;;;;;23.15;60.98;93280.63;5031594;28;20272;-77
2022/06/16 08:41:50;;;;;;;21.40;17.58;;;;;;;23.68;58.42;93298.03;5031628;28;20300;-77
2022/06/16 08:44:24;;;;;;;20.55;18.50;;;;;;;23.21;59.29;93300.56;5030895;28;20197;-76
2022/06/16 08:47:09;;;;;;;21.98;19.63;;;;;;;22.59;60.88;93300.31;5030708;28;20216;-75
2022/06/16 08:49:50;;;;;;;20.88;18.45;;;;;;;23.53;60.48;93299.56;5031628;28;20205;-77
2022/06/16 08:52:24;;;;;;;17.48;15.65;;;;;;;24.45;53.11;93297.25;5031407;28;20236;-76
2022/06/16 08:55:10;;;;;;;19.52;16.52;;;;;;;23.74;55.47;93302.78;5030288;28;20192;-75
2022/06/16 08:57:39;;;;;;;18.05;16.15;;;;;;;23.73;54.32;93295.91;5031023;28;20304;-74
2022/06/16 09:00:20;;;;;;;18.23;16.42;;;;;;;23.42;56.35;93295.06;5030899;28;20201;-75
2022/06/16 09:02:55;;;;;;;20.02;18.02;;;;;;;23.07;56.42;93276.19;5030194;28;20215;-74
2022/06/16 09:05:58;;;;;;;18.45;16.45;;;;;;;23.51;54.92;93293.81;5030180;28;20251;-75
2022/06/16 09:08:38;;;;;;;19.30;16.33;;;;;;;23.58;55.56;93298.56;5031533;28;20240;-75
2022/06/16 09:11:14;;;;;;;17.88;16.05;;;;;;;23.54;56.49;93287.78;5030818;28;20242;-73
2022/06/16 09:13:57;;;;;;;16.95;15.27;;;;;;;23.80;52.25;93297.97;5030460;28;20252;-76
2022/06/16 09:16:50;;;;;;;17.63;15.93;;;;;;;23.71;54.04;93292.03;5030500;28;20221;-75
2022/06/16 09:19:39;;;;;;;18.40;16.60;;;;;;;23.73;53.65;93290.56;5030950;28;20197;-75
2022/06/16 09:22:39;;;;;;;17.05;15.23;;;;;;;23.97;53.44;93294.22;5030817;28;20241;-76
2022/06/16 09:25:34;;;;;;;17.50;15.80;;;;;;;23.65;51.21;93282.72;4976913;28;20212;-76
2022/06/16 09:28:09;;;;;;;17.10;15.43;;;;;;;23.51;53.13;93283.16;5028571;28;20228;-77
2022/06/16 09:30:39;;;;;;;16.77;15.07;;;;;;;23.69;53.97;93287.03;5030783;28;21570;-77
2022/06/16 09:33:44;;;;;;;16.05;14.55;;;;;;;24.19;49.98;93277.63;5030099;28;20192;-75
2022/06/16 09:36:23;;;;;;;16.48;14.88;;;;;;;23.67;52.38;93281.25;5009098;28;20244;-75
2022/06/16 09:38:59;;;;;;;16.45;14.85;;;;;;;24.20;51.92;93271.13;5007278;28;20225;-72
2022/06/16 09:44:47;;;;;;;16.27;14.68;;;;;;;23.60;53.58;93273.09;5030470;28;20221;-72
2022/06/16 09:47:16;;;;;;;16.20;14.60;;;;;;;24.06;52.56;93266.25;5030108;28;20244;-75
2022/06/16 09:49:42;;;;;;;15.80;13.98;;;;;;;23.44;50.54;93266.94;5030133;28;20195;-74
2022/06/16 09:52:35;;;;;;;20.55;16.38;;;;;;;22.51;54.97;93261.28;5030489;28;20226;-73
2022/06/16 09:55:07;;;;;;;17.40;15.48;;;;;;;22.17;54.20;93243.91;5018824;28;20221;-75
2022/06/16 09:57:57;;;;;;;17.63;15.90;;;;;;;23.65;52.48;93256.84;5028311;28;20236;-73
2022/06/16 10:00:24;;;;;;;19.02;15.55;;;;;;;24.15;51.98;93258.06;5029313;28;20278;-76
2022/06/16 10:02:54;;;;;;;16.45;14.85;;;;;;;24.70;51.29;93263.91;5029358;28;20200;-76
2022/06/16 10:05:34;;;;;;;16.65;15.15;;;;;;;24.02;51.33;93251.25;5027856;28;20194;-76
2022/06/16 10:08:04;;;;;;;18.23;16.42;;;;;;;24.13;52.13;93246.94;5029623;28;20190;-78
2022/06/16 10:10:33;;;;;;;17.90;16.00;;;;;;;24.17;51.60;93255.81;5030263;28;20261;-78
2022/06/16 10:13:17;;;;;;;15.80;14.43;;;;;;;24.30;47.16;93262.59;5029807;28;20181;-75
2022/06/16 10:15:59;;;;;;;16.65;15.15;;;;;;;23.55;51.51;93246.66;5029853;28;20237;-73
2022/06/16 10:18:25;;;;;;;17.08;15.48;;;;;;;24.36;49.36;93243.28;5029078;28;20201;-74
2022/06/16 10:20:50;;;;;;;16.88;15.35;;;;;;;24.76;49.33;93232.38;5029042;28;20226;-75
2022/06/16 10:23:36;;;;;;;18.33;16.52;;;;;;;25.26;49.73;93256.28;5028991;28;20208;-74
2022/06/16 10:26:06;;;;;;;17.45;15.75;;;;;;;25.59;47.02;93245.81;5028601;28;20274;-79
2022/06/16 10:28:59;;;;;;;17.20;15.57;;;;;;;25.79;48.16;93247.31;5030401;28;20208;-74
2022/06/16 10:31:46;;;;;;;15.32;13.82;;;;;;;25.30;46.56;93243.75;5030110;28;20230;-73
2022/06/16 10:34:18;;;;;;;17.52;15.93;;;;;;;25.46;46.33;93247.13;5027471;28;20202;-74
2022/06/16 10:36:57;;;;;;;17.85;15.95;;;;;;;24.89;50.92;93228.41;5028797;28;20212;-73
2022/06/16 10:39:30;;;;;;;18.98;15.27;;;;;;;25.61;48.68;93235.53;5027784;28;20196;-75
2022/06/16 10:42:04;;;;;;;16.50;14.98;;;;;;;25.58;47.68;93246.97;5029469;28;20249;-73
2022/06/16 10:44:32;;;;;;;16.23;14.82;;;;;;;25.20;46.05;93229.03;5024763;28;20228;-77
2022/06/16 10:47:04;;;;;;;15.52;14.15;;;;;;;24.94;46.75;93236.94;5029434;28;20227;-75
2022/06/16 10:49:33;;;;;;;53.40;24.50;;;;;;;24.42;49.45;93219.78;5027942;28;20206;-73
2022/06/16 10:52:14;;;;;;;17.45;15.82;;;;;;;25.29;47.53;93221.56;5026322;28;20225;-73
2022/06/16 10:55:08;;;;;;;16.55;15.05;;;;;;;25.05;48.19;93229.91;5028808;28;20198;-75
2022/06/16 10:57:42;;;;;;;15.65;14.35;;;;;;;24.75;46.84;93228.91;5003204;28;20280;-72
2022/06/16 11:00:22;;;;;;;17.42;15.93;;;;;;;24.70;45.83;93231.09;5029516;28;20228;-73
2022/06/16 11:03:08;;;;;;;19.25;17.65;;;;;;;24.25;48.78;93225.50;5026858;28;20694;-71
2022/06/16 11:06:00;;;;;;;16.80;15.20;;;;;;;24.14;48.36;93221.81;5028138;28;20200;-71
2022/06/16 11:08:39;;;;;;;15.80;14.40;;;;;;;23.97;47.63;93230.19;5024967;28;20252;-71
2022/06/16 11:11:05;;;;;;;28.80;17.70;;;;;;;23.80;53.83;93206.53;5026134;28;20233;-73
2022/06/16 11:13:37;;;;;;;20.75;16.08;;;;;;;23.93;51.51;93224.75;5027750;28;20208;-71
2022/06/16 11:16:10;;;;;;;18.60;16.77;;;;;;;23.96;50.86;93228.59;5019488;28;20227;-72
2022/06/16 11:18:37;;;;;;;17.08;15.48;;;;;;;24.29;49.41;93218.34;5028241;28;20208;-71
2022/06/16 11:21:15;;;;;;;18.00;16.27;;;;;;;24.67;48.73;93218.44;5026989;28;20238;-73
2022/06/16 11:23:49;;;;;;;17.35;15.38;;;;;;;25.30;47.66;93211.66;5028134;28;20185;-74
2022/06/16 11:26:27;;;;;;;15.68;14.27;;;;;;;25.40;44.98;93216.47;5027086;28;20238;-74
2022/06/16 11:28:57;;;;;;;16.25;14.85;;;;;;;25.14;43.79;93213.63;5028175;28;20209;-74
2022/06/16 11:31:40;;;;;;;15.77;14.30;;;;;;;24.95;46.48;93216.34;5027668;28;20229;-76
2022/06/16 11:34:16;;;;;;;15.65;14.35;;;;;;;25.02;46.05;93211.13;5028770;28;20189;-74
2022/06/16 11:37:10;;;;;;;14.60;13.50;;;;;;;25.14;43.83;93218.97;5028477;28;21187;-75
2022/06/16 11:40:07;;;;;;;17.20;15.63;;;;;;;24.87;47.80;93214.66;5028762;28;20189;-75
2022/06/16 11:42:57;;;;;;;19.30;14.35;;;;;;;24.43;48.72;93200.75;5028340;28;20233;-75
2022/06/16 11:45:26;;;;;;;14.82;13.60;;;;;;;23.84;50.27;93207.38;5025759;28;20197;-75
2022/06/16 11:48:09;;;;;;;15.15;13.85;;;;;;;24.84;47.41;93212.69;5028145;28;20191;-75
2022/06/16 11:50:45;;;;;;;15.02;13.40;;;;;;;25.25;45.66;93214.63;5027780;28;20293;-75
2022/06/16 11:53:37;;;;;;;16.08;14.55;;;;;;;24.98;47.40;93213.72;5028660;28;20207;-75
2022/06/16 11:56:31;;;;;;;20.40;18.42;;;;;;;25.40;47.67;93207.66;5025918;28;20264;-77
2022/06/16 11:59:27;;;;;;;17.60;16.00;;;;;;;25.00;48.78;93202.69;5012774;28;20198;-79
2022/06/16 12:02:01;;;;;;;16.15;14.60;;;;;;;25.51;47.29;93209.38;5027439;28;20240;-77